createdAt,value
2018-03-11T00:00:41.629Z,15.00
2018-03-11T00:02:18.772Z,15.12
2018-03-11T00:03:55.971Z,15.12
2018-03-11T00:05:33.260Z,15.04
2018-03-11T00:07:10.695Z,14.97
2018-03-11T00:08:47.798Z,14.96
2018-03-11T00:10:25.082Z,15.07
2018-03-11T00:12:03.143Z,15.15
2018-03-11T00:13:42.133Z,15.22
2018-03-11T00:15:21.053Z,15.32
2018-03-11T00:16:58.843Z,15.04
2018-03-11T00:18:36.007Z,14.97
2018-03-11T00:20:13.533Z,15.05
2018-03-11T00:21:51.449Z,14.95
2018-03-11T00:23:28.548Z,14.97
2018-03-11T00:25:05.929Z,15.20
2018-03-11T00:26:44.103Z,14.99
2018-03-11T00:28:21.271Z,14.72
2018-03-11T00:29:58.450Z,14.64
2018-03-11T00:31:35.862Z,14.48
2018-03-11T00:33:12.950Z,14.34
2018-03-11T00:34:50.403Z,14.15
2018-03-11T00:36:28.585Z,14.02
2018-03-11T00:38:07.146Z,13.91
2018-03-11T00:39:44.290Z,13.83
2018-03-11T00:41:22.666Z,13.71
2018-03-11T00:43:00.009Z,13.63
2018-03-11T00:44:37.471Z,13.50
2018-03-11T00:46:14.711Z,13.34
2018-03-11T00:47:52.305Z,13.20
2018-03-11T00:49:30.685Z,13.08
2018-03-11T00:51:09.540Z,12.95
2018-03-11T00:52:47.988Z,12.79
2018-03-11T00:54:25.434Z,12.73
2018-03-11T00:56:03.783Z,12.72
2018-03-11T00:57:43.257Z,12.69
2018-03-11T00:59:21.845Z,12.66
2018-03-11T01:00:59.545Z,12.70
2018-03-11T01:02:37.223Z,12.71
2018-03-11T01:04:16.563Z,12.70
2018-03-11T01:05:54.387Z,12.76
2018-03-11T01:07:32.415Z,12.79
2018-03-11T01:09:10.811Z,12.86
2018-03-11T01:10:48.304Z,12.79
2018-03-11T01:12:25.857Z,12.79
2018-03-11T01:14:03.549Z,12.74
2018-03-11T01:15:43.444Z,12.66
2018-03-11T01:17:21.550Z,12.57
2018-03-11T01:18:58.874Z,12.52
2018-03-11T01:20:36.586Z,12.51
2018-03-11T01:22:15.367Z,12.49
2018-03-11T01:23:53.560Z,12.46
2018-03-11T01:25:32.559Z,12.38
2018-03-11T01:27:09.983Z,12.38
2018-03-11T01:28:47.747Z,12.41
2018-03-11T01:30:27.495Z,12.37
2018-03-11T01:32:05.515Z,12.39
2018-03-11T01:33:43.254Z,12.39
2018-03-11T01:35:20.914Z,12.40
2018-03-11T01:36:58.866Z,12.43
2018-03-11T01:38:36.108Z,12.43
2018-03-11T01:40:14.734Z,12.42
2018-03-11T01:41:52.474Z,12.41
2018-03-11T01:43:29.990Z,12.45
2018-03-11T01:45:07.770Z,12.50
2018-03-11T01:46:46.843Z,12.55
2018-03-11T01:48:26.152Z,12.60
2018-03-11T01:50:04.037Z,12.61
2018-03-11T01:51:41.760Z,12.63
2018-03-11T01:53:19.477Z,12.62
2018-03-11T01:54:58.542Z,12.61
2018-03-11T01:56:36.758Z,12.60
2018-03-11T01:58:14.850Z,12.56
2018-03-11T01:59:52.408Z,12.49
2018-03-11T02:01:31.728Z,12.44
2018-03-11T02:03:10.049Z,12.41
2018-03-11T02:04:48.858Z,12.38
2018-03-11T02:06:26.636Z,12.36
2018-03-11T02:08:05.182Z,12.31
2018-03-11T02:09:43.205Z,12.26
2018-03-11T02:11:21.421Z,12.19
2018-03-11T02:12:59.056Z,12.12
2018-03-11T02:14:37.157Z,12.12
2018-03-11T02:16:16.547Z,12.12
2018-03-11T02:17:54.169Z,12.11
2018-03-11T02:19:31.955Z,12.11
2018-03-11T02:21:11.108Z,12.12
2018-03-11T02:22:48.796Z,12.09
2018-03-11T02:24:27.557Z,12.05
2018-03-11T02:26:05.596Z,12.10
2018-03-11T02:27:44.084Z,12.09
2018-03-11T02:29:21.675Z,12.12
2018-03-11T02:30:59.728Z,12.15
2018-03-11T02:32:37.684Z,12.18
2018-03-11T02:34:15.483Z,12.23
2018-03-11T02:35:54.007Z,12.29
2018-03-11T02:37:32.333Z,12.27
2018-03-11T02:39:10.433Z,12.25
2018-03-11T02:40:48.777Z,12.20
2018-03-11T02:42:26.628Z,12.14
2018-03-11T02:44:05.849Z,12.11
2018-03-11T02:45:45.186Z,12.11
2018-03-11T02:47:23.762Z,12.07
2018-03-11T02:49:01.359Z,12.07
2018-03-11T02:50:40.907Z,12.08
2018-03-11T02:52:19.174Z,12.13
2018-03-11T02:53:56.499Z,12.14
2018-03-11T02:55:34.178Z,12.16
2018-03-11T02:57:11.532Z,12.19
2018-03-11T02:58:51.083Z,12.10
2018-03-11T03:00:32.493Z,12.02
2018-03-11T03:02:11.107Z,11.95
2018-03-11T03:03:48.493Z,11.92
2018-03-11T03:05:26.776Z,11.89
2018-03-11T03:07:04.454Z,11.87
2018-03-11T03:08:42.135Z,11.84
2018-03-11T03:10:19.658Z,11.85
2018-03-11T03:11:57.760Z,11.90
2018-03-11T03:13:35.270Z,11.97
2018-03-11T03:15:12.613Z,12.01
2018-03-11T03:16:52.259Z,12.08
2018-03-11T03:18:30.451Z,12.12
2018-03-11T03:20:09.711Z,12.23
2018-03-11T03:21:47.246Z,12.21
2018-03-11T03:23:24.712Z,12.08
2018-03-11T03:25:03.993Z,12.03
2018-03-11T03:26:41.000Z,12.05
2018-03-11T03:28:18.906Z,12.10
2018-03-11T03:29:56.570Z,12.08
2018-03-11T03:31:35.639Z,12.00
2018-03-11T03:33:14.038Z,11.93
2018-03-11T03:34:51.414Z,11.89
2018-03-11T03:37:58.301Z,11.71
2018-03-11T03:39:35.375Z,11.62
2018-03-11T03:41:12.721Z,11.57
2018-03-11T03:42:50.175Z,11.55
2018-03-11T03:44:28.323Z,11.53
2018-03-11T03:46:06.675Z,11.49
2018-03-11T03:47:44.396Z,11.43
2018-03-11T03:49:21.530Z,11.44
2018-03-11T03:50:59.266Z,11.50
2018-03-11T03:52:37.772Z,11.53
2018-03-11T03:54:14.810Z,11.58
2018-03-11T03:55:51.969Z,11.61
2018-03-11T03:57:30.097Z,11.63
2018-03-11T03:59:08.134Z,11.63
2018-03-11T04:00:45.994Z,11.61
2018-03-11T04:02:23.727Z,11.75
2018-03-11T04:04:01.386Z,11.75
2018-03-11T04:05:38.433Z,11.76
2018-03-11T04:07:15.769Z,11.74
2018-03-11T04:08:52.974Z,11.72
2018-03-11T04:10:31.854Z,11.63
2018-03-11T04:12:09.258Z,11.56
2018-03-11T04:13:52.973Z,11.55
2018-03-11T04:15:31.639Z,11.60
2018-03-11T04:17:08.923Z,11.62
2018-03-11T04:18:47.049Z,11.68
2018-03-11T04:20:24.036Z,11.68
2018-03-11T04:22:01.977Z,11.59
2018-03-11T04:23:40.031Z,11.58
2018-03-11T04:25:17.570Z,11.56
2018-03-11T04:26:54.678Z,11.61
2018-03-11T04:28:31.863Z,11.61
2018-03-11T04:30:10.179Z,11.61
2018-03-11T04:31:47.525Z,11.65
2018-03-11T04:33:24.815Z,11.59
2018-03-11T04:35:02.296Z,11.60
2018-03-11T04:36:40.560Z,11.61
2018-03-11T04:38:17.826Z,11.60
2018-03-11T04:39:55.774Z,11.67
2018-03-11T04:41:33.005Z,11.71
2018-03-11T04:43:10.840Z,11.78
2018-03-11T04:44:48.240Z,11.77
2018-03-11T04:46:26.314Z,11.74
2018-03-11T04:48:03.705Z,11.71
2018-03-11T04:49:41.534Z,11.69
2018-03-11T04:51:18.917Z,11.64
2018-03-11T04:52:57.068Z,11.54
2018-03-11T04:54:34.211Z,11.43
2018-03-11T04:56:11.783Z,11.42
2018-03-11T04:57:49.334Z,11.49
2018-03-11T04:59:26.768Z,11.57
2018-03-11T05:01:04.576Z,11.62
2018-03-11T05:02:42.441Z,11.47
2018-03-11T05:04:19.165Z,11.37
2018-03-11T05:05:56.554Z,11.35
2018-03-11T05:07:33.423Z,11.32
2018-03-11T05:09:10.640Z,11.36
2018-03-11T05:10:47.772Z,11.55
2018-03-11T05:12:24.967Z,12.07
2018-03-11T05:14:01.988Z,12.55
2018-03-11T05:15:40.550Z,12.73
2018-03-11T05:17:17.557Z,12.68
2018-03-11T05:18:55.386Z,12.21
2018-03-11T05:20:32.467Z,11.84
2018-03-11T05:22:09.926Z,11.60
2018-03-11T05:23:47.270Z,11.51
2018-03-11T05:25:24.447Z,11.49
2018-03-11T05:27:01.551Z,11.42
2018-03-11T05:28:38.995Z,11.37
2018-03-11T05:30:19.026Z,11.34
2018-03-11T05:31:55.731Z,11.31
2018-03-11T05:33:32.749Z,11.37
2018-03-11T05:35:09.822Z,11.43
2018-03-11T05:36:46.800Z,11.46
2018-03-11T05:38:23.891Z,11.42
2018-03-11T05:40:00.935Z,11.41
2018-03-11T05:41:38.530Z,11.50
2018-03-11T05:43:16.286Z,11.50
2018-03-11T05:44:53.736Z,11.44
2018-03-11T05:46:30.467Z,11.42
2018-03-11T05:48:08.167Z,11.48
2018-03-11T05:49:45.316Z,11.44
2018-03-11T05:51:22.521Z,11.35
2018-03-11T05:52:59.562Z,11.30
2018-03-11T05:54:37.348Z,11.25
2018-03-11T05:56:15.196Z,11.23
2018-03-11T05:57:53.458Z,11.24
2018-03-11T05:59:30.811Z,11.20
2018-03-11T06:01:08.328Z,11.20
2018-03-11T06:02:45.876Z,11.20
2018-03-11T06:04:23.168Z,11.21
2018-03-11T06:06:00.407Z,11.22
2018-03-11T06:07:38.348Z,11.28
2018-03-11T06:09:15.252Z,11.33
2018-03-11T06:10:53.006Z,11.36
2018-03-11T06:12:30.501Z,11.34
2018-03-11T06:14:08.863Z,11.31
2018-03-11T06:15:47.815Z,11.35
2018-03-11T06:17:25.700Z,11.38
2018-03-11T06:19:03.258Z,11.48
2018-03-11T06:20:41.029Z,11.63
2018-03-11T06:22:19.645Z,11.92
2018-03-11T06:23:57.779Z,12.20
2018-03-11T06:25:35.288Z,12.51
2018-03-11T06:27:13.055Z,12.71
2018-03-11T06:28:50.862Z,12.85
2018-03-11T06:30:29.696Z,12.73
2018-03-11T06:32:07.510Z,12.46
2018-03-11T06:33:46.098Z,12.33
2018-03-11T06:35:23.960Z,12.13
2018-03-11T06:37:02.056Z,12.02
2018-03-11T06:38:39.944Z,11.95
2018-03-11T06:40:17.965Z,12.03
2018-03-11T06:41:55.837Z,11.92
2018-03-11T06:43:34.447Z,11.77
2018-03-11T06:45:12.426Z,11.62
2018-03-11T06:46:52.385Z,11.57
2018-03-11T06:48:30.208Z,11.53
2018-03-11T06:50:08.215Z,11.52
2018-03-11T06:51:45.907Z,11.52
2018-03-11T06:53:24.163Z,11.52
2018-03-11T06:55:02.748Z,11.47
2018-03-11T06:56:40.399Z,11.47
2018-03-11T06:58:17.830Z,11.68
2018-03-11T06:59:56.440Z,12.00
2018-03-11T07:01:34.992Z,12.42
2018-03-11T07:03:12.425Z,13.00
2018-03-11T07:04:50.081Z,13.35
2018-03-11T07:06:28.399Z,13.56
2018-03-11T07:08:06.374Z,13.75
2018-03-11T07:09:44.959Z,14.05
2018-03-11T07:11:22.419Z,14.27
2018-03-11T07:13:01.288Z,13.98
2018-03-11T07:14:38.877Z,13.24
2018-03-11T07:16:18.133Z,12.81
2018-03-11T07:17:56.731Z,12.60
2018-03-11T07:19:34.627Z,12.39
2018-03-11T07:21:12.189Z,12.22
2018-03-11T07:22:50.076Z,12.05
2018-03-11T07:24:27.553Z,12.00
2018-03-11T07:26:05.446Z,11.95
2018-03-11T07:27:43.557Z,11.93
2018-03-11T07:29:21.030Z,12.02
2018-03-11T07:30:59.157Z,12.06
2018-03-11T07:32:37.991Z,12.05
2018-03-11T07:34:22.665Z,12.05
2018-03-11T07:36:01.098Z,12.06
2018-03-11T07:37:39.531Z,12.10
2018-03-11T07:39:19.307Z,12.12
2018-03-11T07:40:57.912Z,12.14
2018-03-11T07:42:36.279Z,12.15
2018-03-11T07:44:13.833Z,12.21
2018-03-11T07:45:52.196Z,12.25
2018-03-11T07:47:29.727Z,12.26
2018-03-11T07:49:07.336Z,12.32
2018-03-11T07:50:44.658Z,12.40
2018-03-11T07:52:22.372Z,12.43
2018-03-11T07:53:59.786Z,12.48
2018-03-11T07:55:37.435Z,12.48
2018-03-11T07:57:14.845Z,12.49
2018-03-11T07:58:52.058Z,12.54
2018-03-11T08:00:34.370Z,12.41
2018-03-11T08:02:11.692Z,12.61
2018-03-11T08:03:49.678Z,12.64
2018-03-11T08:05:28.215Z,12.62
2018-03-11T08:07:05.545Z,12.65
2018-03-11T08:08:42.910Z,12.65
2018-03-11T08:10:20.199Z,12.65
2018-03-11T08:11:57.815Z,12.66
2018-03-11T08:13:34.888Z,12.77
2018-03-11T08:15:12.099Z,12.85
2018-03-11T08:16:49.887Z,12.86
2018-03-11T08:18:27.469Z,12.83
2018-03-11T08:20:05.072Z,12.88
2018-03-11T08:21:43.196Z,12.92
2018-03-11T08:23:20.421Z,12.95
2018-03-11T08:24:58.026Z,12.93
2018-03-11T08:26:35.218Z,12.90
2018-03-11T08:28:12.601Z,12.93
2018-03-11T08:29:49.882Z,12.92
2018-03-11T08:31:27.425Z,12.89
2018-03-11T08:33:04.655Z,12.88
2018-03-11T08:34:41.982Z,12.86
2018-03-11T08:36:19.382Z,12.88
2018-03-11T08:37:56.960Z,12.91
2018-03-11T08:39:34.014Z,12.94
2018-03-11T08:41:11.116Z,12.99
2018-03-11T08:42:48.339Z,13.02
2018-03-11T08:44:25.582Z,13.11
2018-03-11T08:46:03.389Z,13.15
2018-03-11T08:47:41.313Z,13.21
2018-03-11T08:49:18.228Z,13.23
2018-03-11T08:50:55.584Z,13.24
2018-03-11T08:52:32.633Z,13.32
2018-03-11T08:54:09.716Z,13.32
2018-03-11T08:55:47.768Z,13.33
2018-03-11T08:57:25.074Z,13.30
2018-03-11T08:59:01.964Z,13.25
2018-03-11T09:00:39.516Z,13.23
2018-03-11T09:02:17.304Z,13.29
2018-03-11T09:03:54.851Z,13.38
2018-03-11T09:05:31.949Z,13.41
2018-03-11T09:07:08.932Z,13.47
2018-03-11T09:08:47.160Z,13.59
2018-03-11T09:10:24.703Z,13.65
2018-03-11T09:12:01.817Z,13.60
2018-03-11T09:13:39.535Z,13.62
2018-03-11T09:15:18.485Z,13.68
2018-03-11T09:16:57.182Z,13.82
2018-03-11T09:18:34.456Z,13.92
2018-03-11T09:20:11.622Z,14.02
2018-03-11T09:21:49.947Z,14.08
2018-03-11T09:23:28.134Z,14.61
2018-03-11T09:25:05.433Z,14.86
2018-03-11T09:26:42.627Z,15.23
2018-03-11T09:36:51.074Z,15.00
2018-03-11T09:38:28.688Z,15.36
2018-03-11T09:40:05.847Z,15.60
2018-03-11T09:41:44.708Z,15.53
2018-03-11T09:43:22.896Z,15.59
2018-03-11T09:45:00.601Z,15.84
2018-03-11T09:46:39.035Z,15.99
2018-03-11T09:48:18.411Z,16.19
2018-03-11T09:49:56.651Z,16.21
2018-03-11T09:51:34.708Z,16.14
2018-03-11T09:53:12.901Z,16.14
2018-03-11T09:54:50.985Z,16.06
2018-03-11T09:56:28.667Z,16.35
2018-03-11T09:58:07.362Z,16.40
2018-03-11T09:59:46.071Z,16.14
2018-03-11T10:01:25.167Z,15.87
2018-03-11T10:03:03.040Z,15.48
2018-03-11T10:04:40.276Z,15.80
2018-03-11T10:06:18.741Z,15.86
2018-03-11T10:07:56.917Z,16.08
2018-03-11T10:09:34.696Z,16.08
2018-03-11T10:11:12.718Z,16.22
2018-03-11T10:12:49.818Z,16.51
2018-03-11T10:14:27.865Z,16.56
2018-03-11T10:16:06.198Z,16.51
2018-03-11T10:17:43.927Z,16.41
2018-03-11T10:19:21.513Z,16.05
2018-03-11T10:20:59.242Z,16.28
2018-03-11T10:22:36.921Z,16.61
2018-03-11T10:24:13.925Z,16.89
2018-03-11T10:25:51.130Z,17.07
2018-03-11T10:27:46.248Z,16.57
2018-03-11T10:29:24.937Z,16.33
2018-03-11T10:32:56.354Z,16.18
2018-03-11T10:34:35.102Z,16.41
2018-03-11T10:36:12.315Z,16.79
2018-03-11T10:37:49.413Z,16.74
2018-03-11T10:39:27.626Z,16.89
2018-03-11T10:41:04.914Z,17.11
2018-03-11T10:42:42.026Z,17.15
2018-03-11T10:44:19.900Z,17.17
2018-03-11T10:45:57.615Z,17.13
2018-03-11T10:47:34.941Z,17.31
2018-03-11T10:49:12.757Z,17.25
2018-03-11T10:50:49.990Z,17.39
2018-03-11T10:52:27.630Z,17.52
2018-03-11T10:54:04.946Z,17.57
2018-03-11T10:55:43.464Z,17.58
2018-03-11T10:57:20.424Z,17.57
2018-03-11T10:58:57.951Z,17.53
2018-03-11T11:00:40.362Z,17.44
2018-03-11T11:02:20.100Z,17.52
2018-03-11T11:04:01.021Z,17.66
2018-03-11T11:05:38.148Z,17.72
2018-03-11T11:07:15.275Z,17.74
2018-03-11T11:08:53.820Z,17.72
2018-03-11T11:10:31.379Z,17.71
2018-03-11T11:12:08.481Z,17.72
2018-03-11T11:13:45.683Z,17.80
2018-03-11T11:15:26.369Z,17.87
2018-03-11T11:17:04.302Z,17.98
2018-03-11T11:18:42.356Z,18.18
2018-03-11T11:20:19.370Z,18.25
2018-03-11T11:21:56.686Z,18.24
2018-03-11T11:23:36.312Z,18.07
2018-03-11T11:25:13.538Z,18.06
2018-03-11T11:26:51.409Z,18.09
2018-03-11T11:28:28.627Z,18.17
2018-03-11T11:30:06.963Z,18.11
2018-03-11T11:31:44.207Z,18.13
2018-03-11T11:33:21.347Z,18.13
2018-03-11T11:34:58.502Z,18.03
2018-03-11T11:36:36.371Z,17.96
2018-03-11T11:38:13.401Z,18.04
2018-03-11T11:39:50.773Z,18.07
2018-03-11T11:41:29.478Z,18.05
2018-03-11T11:43:06.935Z,18.01
2018-03-11T11:44:44.562Z,17.94
2018-03-11T11:46:21.987Z,17.83
2018-03-11T11:47:59.769Z,17.80
2018-03-11T11:49:37.059Z,17.92
2018-03-11T11:51:14.508Z,17.93
2018-03-11T11:52:52.113Z,17.85
2018-03-11T11:54:30.655Z,17.76
2018-03-11T11:56:09.861Z,17.87
2018-03-11T11:57:48.381Z,17.87
2018-03-11T11:59:26.733Z,17.83
2018-03-11T12:01:05.737Z,17.91
2018-03-11T12:02:43.539Z,17.90
2018-03-11T12:04:21.492Z,17.96
2018-03-11T12:05:59.534Z,18.00
2018-03-11T12:07:37.462Z,17.94
2018-03-11T12:09:14.948Z,17.95
2018-03-11T12:10:54.428Z,17.84
2018-03-11T12:12:32.775Z,17.92
2018-03-11T12:14:10.814Z,17.88
2018-03-11T12:15:48.633Z,18.09
2018-03-11T12:17:26.275Z,18.02
2018-03-11T12:19:03.447Z,17.91
2018-03-11T12:20:41.085Z,18.12
2018-03-11T12:22:18.485Z,18.28
2018-03-11T12:23:56.901Z,18.43
2018-03-11T12:25:34.980Z,18.57
2018-03-11T12:27:13.507Z,18.65
2018-03-11T12:28:51.222Z,18.71
2018-03-11T12:30:29.961Z,18.76
2018-03-11T12:32:07.400Z,18.78
2018-03-11T12:33:46.115Z,18.80
2018-03-11T12:35:25.212Z,18.64
2018-03-11T12:37:03.081Z,18.65
2018-03-11T12:38:41.328Z,18.70
2018-03-11T12:40:19.778Z,18.75
2018-03-11T12:41:58.071Z,18.62
2018-03-11T12:43:35.614Z,18.66
2018-03-11T12:45:14.547Z,18.72
2018-03-11T12:46:56.244Z,18.70
2018-03-11T12:48:34.400Z,18.70
2018-03-11T12:50:11.881Z,18.56
2018-03-11T12:51:49.164Z,18.45
2018-03-11T12:53:27.100Z,18.38
2018-03-11T12:55:04.865Z,18.40
2018-03-11T12:56:44.090Z,18.43
2018-03-11T12:58:23.136Z,18.49
2018-03-11T13:00:02.156Z,18.50
2018-03-11T13:01:40.985Z,18.41
2018-03-11T13:03:18.671Z,18.54
2018-03-11T13:04:59.245Z,18.53
2018-03-11T13:06:40.056Z,18.51
2018-03-11T13:08:19.107Z,18.69
2018-03-11T13:09:59.184Z,18.79
2018-03-11T13:11:38.028Z,18.71
2018-03-11T13:13:17.202Z,18.73
2018-03-11T13:14:57.500Z,18.68
2018-03-11T13:16:36.817Z,18.80
2018-03-11T13:18:15.870Z,18.91
2018-03-11T13:20:08.177Z,19.01
2018-03-11T13:21:46.700Z,18.87
2018-03-11T13:23:25.473Z,18.99
2018-03-11T13:25:03.524Z,19.15
2018-03-11T13:26:42.278Z,19.35
2018-03-11T13:28:58.355Z,19.51
2018-03-11T13:30:39.599Z,19.61
2018-03-11T13:34:41.395Z,19.68
2018-03-11T13:36:22.986Z,19.49
2018-03-11T13:40:19.143Z,19.54
2018-03-11T13:41:59.545Z,19.36
2018-03-11T13:43:41.188Z,19.49
2018-03-11T13:45:37.199Z,19.47
2018-03-11T13:47:18.994Z,19.54
2018-03-11T13:48:58.200Z,19.62
2018-03-11T13:50:37.811Z,19.59
2018-03-11T13:52:31.218Z,19.88
2018-03-11T13:54:10.881Z,20.03
2018-03-11T13:55:51.068Z,20.11
2018-03-11T13:58:22.459Z,19.98
2018-03-11T14:00:08.785Z,19.74
2018-03-11T14:01:50.348Z,19.55
2018-03-11T14:03:33.072Z,19.33
2018-03-11T14:05:11.498Z,19.17
2018-03-11T14:06:52.673Z,19.20
2018-03-11T14:08:30.692Z,19.22
2018-03-11T14:10:09.113Z,19.27
2018-03-11T14:11:48.755Z,19.24
2018-03-11T14:13:27.587Z,19.38
2018-03-11T14:15:05.548Z,19.35
2018-03-11T14:16:47.575Z,19.39
2018-03-11T14:18:28.675Z,19.38
2018-03-11T14:20:08.195Z,19.42
2018-03-11T14:21:48.860Z,19.31
2018-03-11T14:23:28.795Z,19.30
2018-03-11T14:25:07.637Z,19.34
2018-03-11T14:26:45.821Z,19.47
2018-03-11T14:28:27.372Z,19.54
2018-03-11T14:30:07.316Z,19.65
2018-03-11T14:31:50.014Z,19.70
2018-03-11T14:33:29.443Z,19.64
2018-03-11T14:35:09.186Z,19.60
2018-03-11T14:36:48.226Z,19.58
2018-03-11T14:38:26.597Z,19.65
2018-03-11T14:40:05.503Z,19.71
2018-03-11T14:41:45.335Z,19.40
2018-03-11T14:43:24.748Z,19.48
2018-03-11T14:45:03.127Z,19.82
2018-03-11T14:46:44.308Z,19.97
2018-03-11T14:48:23.986Z,19.90
2018-03-11T14:50:01.666Z,20.03
2018-03-11T14:51:44.377Z,19.95
2018-03-11T14:53:24.037Z,19.95
2018-03-11T14:55:03.631Z,19.95
2018-03-11T14:56:43.628Z,19.84
2018-03-11T14:58:23.428Z,19.49
2018-03-11T15:00:02.935Z,19.42
2018-03-11T15:01:41.127Z,19.29
2018-03-11T15:05:03.423Z,19.25
2018-03-11T15:06:41.363Z,19.30
2018-03-11T15:08:20.497Z,19.27
2018-03-11T15:09:59.505Z,19.34
2018-03-11T15:11:38.945Z,19.38
2018-03-11T15:13:17.012Z,19.52
2018-03-11T15:14:57.921Z,19.54
2018-03-11T15:16:38.544Z,19.47
2018-03-11T15:18:18.370Z,19.42
2018-03-11T15:19:57.928Z,19.38
2018-03-11T15:21:36.557Z,19.46
2018-03-11T15:23:15.397Z,19.61
2018-03-11T15:24:54.253Z,19.60
2018-03-11T15:26:35.569Z,19.58
2018-03-11T15:28:15.130Z,19.41
2018-03-11T15:29:55.597Z,19.42
2018-03-11T15:31:37.025Z,19.43
2018-03-11T15:33:15.881Z,19.42
2018-03-11T15:34:55.316Z,19.40
2018-03-11T15:38:11.562Z,19.50
2018-03-11T15:39:51.672Z,19.44
2018-03-11T15:41:31.549Z,19.31
2018-03-11T15:43:11.849Z,19.23
2018-03-11T15:44:50.919Z,19.37
2018-03-11T15:46:30.295Z,19.59
2018-03-11T15:48:09.768Z,19.68
2018-03-11T15:49:59.421Z,19.82
2018-03-11T15:51:39.356Z,19.79
2018-03-11T15:53:20.448Z,19.80
2018-03-11T15:54:59.697Z,19.81
2018-03-11T15:56:39.538Z,19.54
2018-03-11T15:58:17.918Z,19.60
2018-03-11T15:59:56.958Z,19.66
2018-03-11T16:01:35.568Z,19.83
2018-03-11T16:03:13.829Z,19.81
2018-03-11T16:04:53.787Z,19.49
2018-03-11T16:06:32.405Z,19.48
2018-03-11T16:08:12.381Z,19.54
2018-03-11T16:09:52.277Z,19.55
2018-03-11T16:11:32.152Z,19.64
2018-03-11T16:13:13.000Z,19.67
2018-03-11T16:14:51.381Z,19.46
2018-03-11T16:16:33.747Z,19.54
2018-03-11T16:18:13.663Z,19.38
2018-03-11T16:19:52.887Z,19.31
2018-03-11T16:21:31.446Z,19.53
2018-03-11T16:23:10.857Z,19.65
2018-03-11T16:24:49.168Z,19.69
2018-03-11T16:26:29.869Z,19.74
2018-03-11T16:28:09.979Z,19.69
2018-03-11T16:29:50.244Z,19.58
2018-03-11T16:31:39.597Z,19.53
2018-03-11T16:33:20.673Z,19.51
2018-03-11T16:35:01.012Z,19.47
2018-03-11T16:36:47.400Z,19.55
2018-03-11T16:38:26.959Z,19.62
2018-03-11T16:40:04.556Z,19.67
2018-03-11T16:41:44.734Z,19.73
2018-03-11T16:43:23.373Z,19.76
2018-03-11T16:45:04.413Z,19.59
2018-03-11T16:46:46.724Z,19.60
2018-03-11T16:48:29.637Z,19.53
2018-03-11T16:50:08.343Z,18.98
2018-03-11T16:51:47.432Z,18.60
2018-03-11T16:53:26.690Z,18.35
2018-03-11T16:55:07.118Z,18.24
2018-03-11T16:56:47.113Z,17.98
2018-03-11T16:58:29.454Z,17.95
2018-03-11T17:00:08.015Z,18.03
2018-03-11T17:01:48.707Z,18.11
2018-03-11T17:03:27.227Z,18.55
2018-03-11T17:05:08.203Z,18.91
2018-03-11T17:06:51.564Z,19.06
2018-03-11T17:08:31.646Z,19.11
2018-03-11T17:10:12.062Z,19.15
2018-03-11T17:11:55.581Z,19.11
2018-03-11T17:13:36.894Z,18.98
2018-03-11T17:15:19.220Z,18.75
2018-03-11T17:17:00.148Z,18.60
2018-03-11T17:18:42.598Z,18.74
2018-03-11T17:20:21.774Z,19.05
2018-03-11T17:22:03.246Z,19.28
2018-03-11T17:23:44.746Z,19.52
2018-03-11T17:25:25.239Z,19.39
2018-03-11T17:27:04.583Z,18.68
2018-03-11T17:28:46.965Z,18.15
2018-03-11T17:30:32.704Z,17.62
2018-03-11T17:32:13.046Z,17.25
2018-03-11T17:33:52.254Z,17.33
2018-03-11T17:35:34.802Z,17.31
2018-03-11T17:37:15.397Z,17.08
2018-03-11T17:38:55.996Z,16.90
2018-03-11T17:40:35.424Z,16.70
2018-03-11T17:42:14.558Z,16.49
2018-03-11T17:43:55.176Z,16.43
2018-03-11T17:45:34.836Z,16.57
2018-03-11T17:47:16.320Z,17.07
2018-03-11T17:48:56.631Z,17.47
2018-03-11T17:50:38.248Z,17.84
2018-03-11T17:52:19.030Z,17.97
2018-03-11T17:54:00.346Z,18.03
2018-03-11T17:55:42.093Z,18.25
2018-03-11T17:57:21.705Z,18.39
2018-03-11T17:59:01.629Z,18.51
2018-03-11T18:00:42.408Z,18.59
2018-03-11T18:02:22.447Z,18.57
2018-03-11T18:04:01.046Z,18.57
2018-03-11T18:05:42.029Z,18.58
2018-03-11T18:07:22.775Z,18.57
2018-03-11T18:09:08.969Z,18.59
2018-03-11T18:10:48.075Z,18.36
2018-03-11T18:12:27.923Z,18.42
2018-03-11T18:14:11.103Z,18.56
2018-03-11T18:15:53.076Z,18.48
2018-03-11T18:17:34.760Z,18.50
2018-03-11T18:19:15.430Z,18.49
2018-03-11T18:20:54.936Z,18.53
2018-03-11T18:22:35.809Z,18.57
2018-03-11T18:24:16.622Z,18.38
2018-03-11T18:25:57.283Z,18.08
2018-03-11T18:27:37.124Z,18.20
2018-03-11T18:29:17.153Z,18.37
2018-03-11T18:30:57.562Z,18.45
2018-03-11T18:32:41.296Z,17.74
2018-03-11T18:34:22.571Z,17.12
2018-03-11T18:36:03.222Z,16.93
2018-03-11T18:37:46.800Z,16.82
2018-03-11T18:39:27.327Z,16.66
2018-03-11T18:41:05.787Z,16.26
2018-03-11T18:42:45.506Z,16.33
2018-03-11T18:44:25.526Z,16.15
2018-03-11T18:46:06.719Z,16.07
2018-03-11T18:47:46.940Z,15.87
2018-03-11T18:49:26.775Z,15.71
2018-03-11T18:51:07.965Z,15.62
2018-03-11T18:52:49.989Z,15.59
2018-03-11T18:54:33.548Z,15.52
2018-03-11T18:56:15.099Z,15.30
2018-03-11T18:57:55.791Z,15.13
2018-03-11T18:59:38.074Z,14.98
2018-03-11T19:01:20.177Z,14.86
2018-03-11T19:03:01.185Z,14.77
2018-03-11T19:04:41.797Z,14.80
2018-03-11T19:06:22.266Z,14.81
2018-03-11T19:08:01.087Z,14.88
2018-03-11T19:09:44.175Z,14.82
2018-03-11T19:11:23.812Z,14.79
2018-03-11T19:13:04.271Z,14.79
2018-03-11T19:14:51.245Z,14.76
2018-03-11T19:16:33.343Z,14.69
2018-03-11T19:18:11.730Z,14.83
2018-03-11T19:19:52.713Z,14.88
2018-03-11T19:21:33.024Z,14.79
2018-03-11T19:23:15.493Z,14.74
2018-03-11T19:24:56.542Z,14.67
2018-03-11T19:26:39.032Z,14.55
2018-03-11T19:28:20.210Z,14.48
2018-03-11T19:30:07.035Z,14.41
2018-03-11T19:31:50.714Z,14.29
2018-03-11T19:33:32.243Z,14.26
2018-03-11T19:35:13.064Z,14.23
2018-03-11T19:36:54.887Z,14.20
2018-03-11T19:38:38.117Z,14.21
2018-03-11T19:40:18.729Z,14.18
2018-03-11T19:41:57.953Z,14.21
2018-03-11T19:43:41.521Z,14.24
2018-03-11T19:45:24.722Z,14.24
2018-03-11T19:47:06.055Z,14.21
2018-03-11T19:48:49.330Z,14.23
2018-03-11T19:50:30.753Z,14.29
2018-03-11T19:52:11.501Z,14.35
2018-03-11T19:53:52.227Z,14.45
2018-03-11T19:55:30.978Z,14.50
2018-03-11T19:57:16.852Z,14.48
2018-03-11T19:58:58.712Z,14.39
2018-03-11T20:00:38.400Z,14.27
2018-03-11T20:02:18.013Z,14.23
2018-03-11T20:04:00.971Z,14.18
2018-03-11T20:05:41.612Z,14.20
2018-03-11T20:07:22.569Z,14.17
2018-03-11T20:09:04.297Z,14.12
2018-03-11T20:10:45.588Z,14.07
2018-03-11T20:12:25.045Z,13.87
2018-03-11T20:14:04.388Z,13.71
2018-03-11T20:15:45.520Z,13.52
2018-03-11T20:17:25.184Z,13.41
2018-03-11T20:19:04.266Z,13.34
2018-03-11T20:20:47.143Z,13.31
2018-03-11T20:22:31.886Z,13.29
2018-03-11T20:24:15.400Z,13.32
2018-03-11T20:25:55.058Z,13.28
2018-03-11T20:27:36.485Z,13.26
2018-03-11T20:29:17.681Z,13.26
2018-03-11T20:30:59.063Z,13.26
2018-03-11T20:32:37.834Z,13.22
2018-03-11T20:34:16.866Z,13.18
2018-03-11T20:35:57.022Z,13.18
2018-03-11T20:37:36.568Z,13.22
2018-03-11T20:39:17.566Z,13.27
2018-03-11T20:40:59.060Z,13.33
2018-03-11T20:42:38.575Z,13.35
2018-03-11T20:44:16.691Z,13.43
2018-03-11T20:45:58.868Z,13.45
2018-03-11T20:47:38.059Z,13.42
2018-03-11T20:49:17.322Z,13.33
2018-03-11T20:50:57.891Z,13.26
2018-03-11T20:52:38.042Z,13.21
2018-03-11T20:54:17.280Z,13.23
2018-03-11T20:55:56.057Z,13.25
2018-03-11T20:57:35.325Z,13.27
2018-03-11T20:59:14.974Z,13.24
2018-03-11T21:00:55.727Z,13.19
2018-03-11T21:02:34.436Z,13.18
2018-03-11T21:04:12.974Z,13.18
2018-03-11T21:05:50.536Z,13.20
2018-03-11T21:07:29.230Z,13.20
2018-03-11T21:09:07.597Z,13.23
2018-03-11T21:10:47.243Z,13.26
2018-03-11T21:12:27.558Z,13.38
2018-03-11T21:14:05.895Z,13.48
2018-03-11T21:15:44.440Z,13.56
2018-03-11T21:17:21.805Z,13.55
2018-03-11T21:19:00.284Z,13.67
2018-03-11T21:20:39.554Z,13.64
2018-03-11T21:22:17.504Z,13.53
2018-03-11T21:23:55.888Z,13.42
2018-03-11T21:25:33.699Z,13.38
2018-03-11T21:27:12.393Z,13.37
2018-03-11T21:28:50.058Z,13.29
2018-03-11T21:30:33.978Z,13.27
2018-03-11T21:32:14.808Z,13.24
2018-03-11T21:33:52.502Z,13.19
2018-03-11T21:35:31.263Z,13.17